Felix-Klein-Gymnasium, Gttingen, 150m NN
Wetterdaten: aktuell Samstag, 22.09.2018 15:30
Datum Zeit Temp. A. Feuchte A. Luftdruck Regen Wind Richtung Richtung Sonnenschein Taupunkt Windchill Windben
22.09.2018 15:30 16,1 C 53 % 1016,1 hPa 0,0 mm 4,8 km/h (1 Bft) W-SW 245 0 min 6,5 C 16,1 C 17,7 km/h (3 Bft)
22.09.2018 15:15 15,9 C 55 % 1016,6 hPa 0,0 mm 7,1 km/h (2 Bft) SW 219 0 min 6,9 C 15,9 C 25,7 km/h (4 Bft)
22.09.2018 15:00 15,8 C 55 % 1016,7 hPa 0,0 mm 9,8 km/h (2 Bft) W-SW 242 0 min 6,8 C 15,8 C 29,0 km/h (5 Bft)
22.09.2018 14:45 15,8 C 56 % 1016,7 hPa 0,0 mm 7,4 km/h (2 Bft) W 259 0 min 7,0 C 15,8 C 25,7 km/h (4 Bft)
22.09.2018 14:30 15,8 C 58 % 1016,5 hPa 0,0 mm 3,0 km/h (1 Bft) W-SW 238 0 min 7,6 C 15,8 C 12,9 km/h (3 Bft)
22.09.2018 14:15 15,7 C 58 % 1016,8 hPa 0,0 mm 4,4 km/h (1 Bft) W-SW 246 15 min 7,5 C 15,7 C 22,5 km/h (4 Bft)
22.09.2018 14:00 15,2 C 59 % 1016,9 hPa 0,0 mm 8,6 km/h (2 Bft) W-NW 289 0 min 7,2 C 15,2 C 25,7 km/h (4 Bft)
22.09.2018 13:45 15,4 C 60 % 1017,1 hPa 0,0 mm 4,1 km/h (1 Bft) W 271 0 min 7,7 C 15,4 C 20,9 km/h (4 Bft)
22.09.2018 13:30 15,1 C 62 % 1017,3 hPa 0,0 mm 7,5 km/h (2 Bft) W-SW 245 0 min 7,9 C 15,1 C 27,4 km/h (4 Bft)
22.09.2018 13:15 14,9 C 62 % 1017,3 hPa 0,0 mm 5,7 km/h (1 Bft) W-NW 282 0 min 7,7 C 14,9 C 24,1 km/h (4 Bft)
22.09.2018 13:00 14,7 C 62 % 1017,2 hPa 0,0 mm 8,0 km/h (2 Bft) W 264 0 min 7,5 C 14,7 C 29,0 km/h (5 Bft)
22.09.2018 12:45 14,5 C 67 % 1017,3 hPa 0,0 mm 4,7 km/h (1 Bft) W-SW 251 0 min 8,4 C 14,5 C 25,7 km/h (4 Bft)
22.09.2018 12:30 14,2 C 69 % 1017,4 hPa 0,0 mm 3,2 km/h (1 Bft) W-SW 246 0 min 8,6 C 14,2 C 24,1 km/h (4 Bft)
22.09.2018 12:15 13,9 C 70 % 1017,5 hPa 0,0 mm 6,3 km/h (2 Bft) W-SW 238 0 min 8,5 C 13,9 C 24,1 km/h (4 Bft)
22.09.2018 12:00 13,8 C 70 % 1017,5 hPa 0,0 mm 8,6 km/h (2 Bft) W-SW 238 0 min 8,4 C 13,8 C 27,4 km/h (4 Bft)
22.09.2018 11:45 13,8 C 70 % 1017,8 hPa 0,0 mm 6,7 km/h (2 Bft) S-SW 195 0 min 8,4 C 13,8 C 25,7 km/h (4 Bft)
22.09.2018 11:30 13,6 C 70 % 1017,9 hPa 0,0 mm 8,1 km/h (2 Bft) W-SW 252 0 min 8,2 C 13,6 C 24,1 km/h (4 Bft)
22.09.2018 11:15 13,6 C 71 % 1018,0 hPa 0,0 mm 3,3 km/h (1 Bft) S 188 15 min 8,4 C 13,6 C 22,5 km/h (4 Bft)
22.09.2018 11:00 13,2 C 71 % 1017,9 hPa 0,0 mm 3,2 km/h (1 Bft) S 191 0 min 8,1 C 13,2 C 19,3 km/h (3 Bft)
22.09.2018 10:45 12,9 C 73 % 1017,8 hPa 0,0 mm 2,9 km/h (1 Bft) SW 234 15 min 8,2 C 12,9 C 22,5 km/h (4 Bft)
22.09.2018 10:30 12,6 C 75 % 1018,0 hPa 0,0 mm 0,4 km/h (0 Bft) S 171 0 min 8,3 C 12,6 C 8,0 km/h (2 Bft)
22.09.2018 10:15 12,3 C 76 % 1017,9 hPa 0,0 mm 1,7 km/h (1 Bft) S-SO 167 0 min 8,2 C 12,3 C 11,3 km/h (2 Bft)
22.09.2018 10:00 12,1 C 77 % 1017,8 hPa 0,0 mm 2,2 km/h (1 Bft) S-SW 205 0 min 8,2 C 12,1 C 16,1 km/h (3 Bft)
22.09.2018 09:45 11,8 C 78 % 1017,7 hPa 0,0 mm 2,8 km/h (1 Bft) W-SW 248 0 min 8,1 C 11,8 C 16,1 km/h (3 Bft)
22.09.2018 09:30 11,6 C 79 % 1017,6 hPa 0,0 mm 3,6 km/h (1 Bft) W-SW 246 0 min 8,1 C 11,6 C 12,9 km/h (3 Bft)
22.09.2018 09:15 11,4 C 80 % 1017,5 hPa 0,0 mm 3,2 km/h (1 Bft) SW 228 0 min 8,1 C 11,4 C 16,1 km/h (3 Bft)
22.09.2018 09:00 11,3 C 80 % 1017,3 hPa 0,0 mm 2,3 km/h (1 Bft) W-SW 247 0 min 8,0 C 11,3 C 12,9 km/h (3 Bft)
22.09.2018 08:45 11,2 C 81 % 1017,3 hPa 0,0 mm 1,8 km/h (1 Bft) W 263 0 min 8,1 C 11,2 C 11,3 km/h (2 Bft)
22.09.2018 08:30 10,9 C 82 % 1017,2 hPa 0,0 mm 0,6 km/h (0 Bft) W-SW 251 0 min 7,9 C 10,9 C 9,7 km/h (2 Bft)
22.09.2018 08:15 10,8 C 82 % 1017,2 hPa 0,0 mm 0,2 km/h (0 Bft) S-SW 211 0 min 7,9 C 10,8 C 6,4 km/h (2 Bft)
22.09.2018 08:00 10,7 C 82 % 1017,0 hPa 0,0 mm 0,6 km/h (0 Bft) S-SW 195 0 min 7,8 C 10,7 C 12,9 km/h (3 Bft)
22.09.2018 07:45 10,4 C 82 % 1016,8 hPa 0,0 mm 0,3 km/h (0 Bft) S-SW 205 15 min 7,5 C 10,4 C 8,0 km/h (2 Bft)
22.09.2018 07:30 10,2 C 83 % 1016,8 hPa 0,0 mm 0,8 km/h (0 Bft) SW 227 0 min 7,4 C 10,2 C 11,3 km/h (2 Bft)
22.09.2018 07:15 10,1 C 84 % 1016,6 hPa 0,0 mm 1,1 km/h (1 Bft) S-SW 195 0 min 7,5 C 10,1 C 11,3 km/h (2 Bft)
22.09.2018 07:00 9,8 C 85 % 1016,2 hPa 0,0 mm 0,2 km/h (0 Bft) SW 215 0 min 7,4 C 9,8 C 4,8 km/h (1 Bft)
22.09.2018 06:45 9,8 C 85 % 1016,2 hPa 0,0 mm 1,1 km/h (1 Bft) S 181 0 min 7,4 C 9,8 C 8,0 km/h (2 Bft)
22.09.2018 06:30 9,6 C 85 % 1015,8 hPa 0,0 mm 0,5 km/h (0 Bft) S-SW 209 0 min 7,2 C 9,6 C 8,0 km/h (2 Bft)
22.09.2018 06:15 9,6 C 85 % 1015,7 hPa 0,0 mm 0,4 km/h (0 Bft) S 186 0 min 7,2 C 9,6 C 6,4 km/h (2 Bft)
22.09.2018 06:00 9,7 C 85 % 1015,5 hPa 0,0 mm 2,0 km/h (1 Bft) S 169 0 min 7,3 C 9,7 C 8,0 km/h (2 Bft)
22.09.2018 05:45 9,4 C 86 % 1015,5 hPa 0,0 mm 1,7 km/h (1 Bft) SO 146 0 min 7,2 C 9,4 C 9,7 km/h (2 Bft)
22.09.2018 05:30 9,3 C 86 % 1015,4 hPa 0,0 mm 2,7 km/h (1 Bft) S 170 0 min 7,1 C 9,3 C 8,0 km/h (2 Bft)
22.09.2018 05:15 9,4 C 85 % 1015,2 hPa 0,3 mm 0,8 km/h (0 Bft) S 184 0 min 7,0 C 9,4 C 6,4 km/h (2 Bft)
22.09.2018 05:00 9,8 C 84 % 1015,1 hPa 0,0 mm 0,9 km/h (0 Bft) SW 215 0 min 7,2 C 9,8 C 12,9 km/h (3 Bft)
22.09.2018 04:45 9,9 C 84 % 1015,0 hPa 0,0 mm 3,9 km/h (1 Bft) SW 235 0 min 7,3 C 9,9 C 17,7 km/h (3 Bft)
22.09.2018 04:30 10,0 C 84 % 1014,8 hPa 0,0 mm 6,1 km/h (2 Bft) S-SW 213 0 min 7,4 C 9,4 C 19,3 km/h (3 Bft)
22.09.2018 04:15 10,0 C 84 % 1014,6 hPa 0,0 mm 5,0 km/h (1 Bft) SW 219 0 min 7,4 C 9,8 C 27,4 km/h (4 Bft)
22.09.2018 04:00 10,1 C 84 % 1014,5 hPa 0,0 mm 11,1 km/h (2 Bft) W 274 0 min 7,5 C 10,1 C 27,4 km/h (4 Bft)
22.09.2018 03:45 10,5 C 82 % 1014,6 hPa 0,3 mm 9,5 km/h (2 Bft) W-SW 242 0 min 7,6 C 10,5 C 33,8 km/h (5 Bft)
22.09.2018 03:30 11,1 C 77 % 1014,4 hPa 0,0 mm 10,0 km/h (2 Bft) W-NW 293 0 min 7,2 C 11,1 C 38,6 km/h (5 Bft)
22.09.2018 03:15 11,3 C 73 % 1014,1 hPa 0,0 mm 4,5 km/h (1 Bft) W-SW 253 0 min 6,6 C 11,3 C 25,7 km/h (4 Bft)
22.09.2018 03:00 11,3 C 72 % 1013,6 hPa 0,0 mm 4,4 km/h (1 Bft) SW 233 0 min 6,4 C 11,3 C 20,9 km/h (4 Bft)
22.09.2018 02:45 11,3 C 72 % 1013,5 hPa 0,0 mm 4,9 km/h (1 Bft) W-SW 251 0 min 6,4 C 11,3 C 25,7 km/h (4 Bft)
22.09.2018 02:30 11,3 C 73 % 1013,4 hPa 0,0 mm 5,2 km/h (1 Bft) SW 234 0 min 6,6 C 11,3 C 22,5 km/h (4 Bft)
22.09.2018 02:15 11,4 C 71 % 1013,5 hPa 0,0 mm 8,7 km/h (2 Bft) W-SW 247 0 min 6,3 C 11,4 C 25,7 km/h (4 Bft)
22.09.2018 02:00 11,4 C 71 % 1013,3 hPa 0,0 mm 6,7 km/h (2 Bft) W-SW 254 0 min 6,3 C 11,4 C 29,0 km/h (5 Bft)
22.09.2018 01:45 11,3 C 71 % 1013,2 hPa 0,0 mm 4,1 km/h (1 Bft) W-SW 238 0 min 6,2 C 11,3 C 27,4 km/h (4 Bft)
22.09.2018 01:30 11,4 C 70 % 1012,9 hPa 0,0 mm 3,7 km/h (1 Bft) S 169 0 min 6,1 C 11,4 C 17,7 km/h (3 Bft)
22.09.2018 01:15 11,6 C 70 % 1012,9 hPa 0,0 mm 6,6 km/h (2 Bft) W 263 0 min 6,3 C 11,6 C 25,7 km/h (4 Bft)
22.09.2018 01:00 11,6 C 71 % 1012,6 hPa 0,0 mm 8,2 km/h (2 Bft) W-SW 257 0 min 6,5 C 11,6 C 29,0 km/h (5 Bft)
22.09.2018 00:45 11,4 C 72 % 1012,6 hPa 0,0 mm 6,7 km/h (2 Bft) W-SW 246 0 min 6,5 C 11,4 C 29,0 km/h (5 Bft)
22.09.2018 00:30 11,4 C 73 % 1012,3 hPa 0,0 mm 5,8 km/h (2 Bft) W-SW 253 0 min 6,7 C 11,4 C 20,9 km/h (4 Bft)
22.09.2018 00:15 11,4 C 74 % 1012,2 hPa 0,0 mm 3,7 km/h (1 Bft) W-SW 247 0 min 6,9 C 11,4 C 20,9 km/h (4 Bft)
22.09.2018 00:00 11,6 C 74 % 1012,2 hPa 0,0 mm 3,1 km/h (1 Bft) W-SW 242 0 min 7,1 C 11,6 C 19,3 km/h (3 Bft)
21.09.2018 23:45 11,7 C 74 % 1012,1 hPa 0,0 mm 3,2 km/h (1 Bft) W-SW 245 0 min 7,2 C 11,7 C 17,7 km/h (3 Bft)
21.09.2018 23:30 11,6 C 75 % 1012,1 hPa 0,0 mm 4,8 km/h (1 Bft) W-SW 245 0 min 7,3 C 11,6 C 24,1 km/h (4 Bft)
21.09.2018 23:15 11,6 C 77 % 1011,9 hPa 0,0 mm 8,0 km/h (2 Bft) W-SW 245 0 min 7,7 C 11,6 C 25,7 km/h (4 Bft)
21.09.2018 23:00 11,3 C 78 % 1011,7 hPa 0,0 mm 4,0 km/h (1 Bft) S-SW 200 0 min 7,6 C 11,3 C 16,1 km/h (3 Bft)
21.09.2018 22:45 11,3 C 77 % 1011,5 hPa 0,0 mm 1,1 km/h (1 Bft) SW 232 0 min 7,4 C 11,3 C 11,3 km/h (2 Bft)
21.09.2018 22:30 11,6 C 76 % 1011,2 hPa 0,0 mm 1,9 km/h (1 Bft) S-SW 205 0 min 7,5 C 11,6 C 17,7 km/h (3 Bft)
21.09.2018 22:15 11,5 C 78 % 1011,0 hPa 0,0 mm 5,0 km/h (1 Bft) W-NW 288 0 min 7,8 C 11,5 C 19,3 km/h (3 Bft)
21.09.2018 22:00 11,0 C 82 % 1010,9 hPa 0,0 mm 1,7 km/h (1 Bft) W-SW 250 0 min 8,0 C 11,0 C 12,9 km/h (3 Bft)
21.09.2018 21:45 11,3 C 82 % 1010,7 hPa 0,0 mm 0,1 km/h (0 Bft) S-SW 205 0 min 8,3 C 11,3 C 4,8 km/h (1 Bft)
21.09.2018 21:30 11,8 C 77 % 1010,6 hPa 0,0 mm 0,5 km/h (0 Bft) W-SW 240 0 min 7,9 C 11,8 C 6,4 km/h (2 Bft)
21.09.2018 21:15 12,2 C 75 % 1010,3 hPa 0,0 mm 2,5 km/h (1 Bft) W-SW 245 0 min 7,9 C 12,2 C 16,1 km/h (3 Bft)
21.09.2018 21:00 12,4 C 78 % 1010,2 hPa 0,0 mm 2,3 km/h (1 Bft) W-SW 257 0 min 8,7 C 12,4 C 14,5 km/h (3 Bft)
21.09.2018 20:45 12,8 C 84 % 1009,7 hPa 0,0 mm 1,5 km/h (1 Bft) SW 232 0 min 10,2 C 12,8 C 9,7 km/h (2 Bft)
21.09.2018 20:30 13,0 C 84 % 1009,4 hPa 0,0 mm 1,4 km/h (1 Bft) W-SW 255 0 min 10,4 C 13,0 C 11,3 km/h (2 Bft)
21.09.2018 20:15 13,1 C 85 % 1009,1 hPa 0,0 mm 0,5 km/h (0 Bft) W 274 0 min 10,6 C 13,1 C 6,4 km/h (2 Bft)
21.09.2018 20:00 13,2 C 86 % 1008,7 hPa 0,0 mm 0,8 km/h (0 Bft) W-SW 251 0 min 10,9 C 13,2 C 11,3 km/h (2 Bft)
21.09.2018 19:45 13,2 C 86 % 1008,4 hPa 0,0 mm 1,2 km/h (1 Bft) W 266 0 min 10,9 C 13,2 C 11,3 km/h (2 Bft)
21.09.2018 19:30 13,2 C 87 % 1008,1 hPa 0,0 mm 2,7 km/h (1 Bft) W-SW 244 0 min 11,1 C 13,2 C 19,3 km/h (3 Bft)
21.09.2018 19:15 13,2 C 88 % 1007,8 hPa 0,0 mm 3,7 km/h (1 Bft) W-NW 301 0 min 11,3 C 13,2 C 14,5 km/h (3 Bft)
21.09.2018 19:00 13,2 C 89 % 1007,3 hPa 0,0 mm 2,0 km/h (1 Bft) W-SW 251 15 min 11,4 C 13,2 C 12,9 km/h (3 Bft)
21.09.2018 18:45 13,2 C 90 % 1007,2 hPa 0,0 mm 0,4 km/h (0 Bft) W-SW 253 0 min 11,6 C 13,2 C 8,0 km/h (2 Bft)
21.09.2018 18:30 13,1 C 90 % 1007,1 hPa 0,0 mm 2,5 km/h (1 Bft) W-SW 251 0 min 11,5 C 13,1 C 12,9 km/h (3 Bft)
21.09.2018 18:15 13,2 C 90 % 1007,2 hPa 0,0 mm 3,7 km/h (1 Bft) S-SW 195 0 min 11,6 C 13,2 C 19,3 km/h (3 Bft)
21.09.2018 18:00 13,2 C 91 % 1006,9 hPa 0,0 mm 2,3 km/h (1 Bft) S-SW 211 0 min 11,8 C 13,2 C 12,9 km/h (3 Bft)
21.09.2018 17:45 13,1 C 90 % 1006,2 hPa 0,0 mm 1,6 km/h (1 Bft) W-SW 258 0 min 11,5 C 13,1 C 12,9 km/h (3 Bft)
21.09.2018 17:30 13,1 C 90 % 1006,1 hPa 0,3 mm 3,0 km/h (1 Bft) W-SW 246 0 min 11,5 C 13,1 C 14,5 km/h (3 Bft)
21.09.2018 17:15 13,2 C 90 % 1006,3 hPa 0,0 mm 1,3 km/h (1 Bft) S 172 0 min 11,6 C 13,2 C 8,0 km/h (2 Bft)
21.09.2018 17:00 13,2 C 90 % 1005,8 hPa 0,0 mm 0,1 km/h (0 Bft) SW 235 0 min 11,6 C 13,2 C 6,4 km/h (2 Bft)
21.09.2018 16:45 13,0 C 91 % 1006,2 hPa 0,3 mm 0,5 km/h (0 Bft) SW 215 0 min 11,6 C 13,0 C 8,0 km/h (2 Bft)
21.09.2018 16:30 12,8 C 90 % 1006,0 hPa 0,0 mm 0,6 km/h (0 Bft) S-SO 157 0 min 11,2 C 12,8 C 4,8 km/h (1 Bft)
21.09.2018 16:15 12,7 C 90 % 1006,1 hPa 0,3 mm 0,3 km/h (0 Bft) S-SO 159 0 min 11,1 C 12,7 C 4,8 km/h (1 Bft)
21.09.2018 16:00 12,7 C 89 % 1006,4 hPa 1,0 mm 0,0 km/h (0 Bft) S 180 0 min 10,9 C 12,7 C 0,0 km/h (0 Bft)
_ Min-Zeit 05:45 15:30 17:00 - 16:00 - - - 01:30 05:30 16:00
Minimum _ 9,2 C 53 % 1005,8 hPa - 0,0 km/h (0 Bft) - - - 6,1 C 9,3 C 0,0 km/h (0 Bft)
_ Max-Zeit 15:30 16:45 10:30 16:00 04:00 - - 19:00 18:00 15:30 03:30
Maximum _ 16,1 C 91 % 1018,0 hPa 1,0 mm 11,1 km/h
W (2 Bft)
- - 15 min 11,8 C 16,1 C 38,6 km/h
W-NW (5 Bft)
Durchschnitt _ 12,2 C 78 % 1013,0 hPa #2,3 mm 3,3 km/h (1 Bft) W-SW - #1:00 h 8,4 C 12,2 C 15,8 km/h (3 Bft)